Main page
METAR-TAF:

METAR-TAF

Airports :

Léopold Sédar Senghor International Airport

Dakar, Senegal

latitude: 14-44N, longitude: 017-30W, elevation: 27 m

Current weather observation

The report was made 49 minutes ago, at 00:00 UTC
Wind 8 kt from the North
Temperature 20°C
Humidity 88%
Pressure 1014 hPa
Visibility: 8000 m

METAR: GOOY 160000Z 36008KT 8000 NSC 20/18 Q1014

Time: 00:49 (00:49 UTC)

Forecast

The report was made 1 hour and 19 minutes ago, at 23:30 UTC
Forecast valid from 16 at 00 UTC to 17 at 06 UTC
Wind 8 kt from the North
Visibility 10 km or more
no clouds below 1500 m and no cumulonimbus

TAF: GOOY 152330Z 1600/1706 36008KT CAVOK

Weather observations and forecasts of more than 4000 airports (METAR and TAF reports).

The available stations are represented by yellow and red dots on the map.

Hover mouse over dot to see the name of the station.

Then click to see weather observations and forecasts.

To change the map : click on the green buttons with a black cross to zoom in, on the green button with a dash to zoom out, or on the green arrows for adjacent maps.


METAR-TAF: